Time;durP1;ratioP1;P1;durP2;ratioP2;P2;SDS_P1;SDS_P2;PMS_P1;PMS_P2;Temp;Humidity;BMP_temperature;BMP_pressure;BME280_temperature;BME280_humidity;BME280_pressure;Samples;Min_cycle;Max_cycle;Signal;HPM_P1;HPM_P2
2023/10/10 00:02:19;;;;;;;36.70;17.30;;;;;;;6.40;86.74;101152.67;110785;1209;139009;-63
2023/10/10 00:04:47;;;;;;;30.70;16.70;;;;;;;6.37;86.85;101155.58;110938;1209;96337;-64
2023/10/10 00:07:15;;;;;;;32.70;18.00;;;;;;;6.34;86.99;101153.34;110795;1209;140062;-63
2023/10/10 00:09:44;;;;;;;32.60;16.20;;;;;;;6.30;86.97;101151.97;110947;1209;109303;-63
2023/10/10 00:12:18;;;;;;;37.90;17.60;;;;;;;6.30;87.07;101151.09;110914;1213;100096;-63
2023/10/10 00:14:49;;;;;;;33.70;16.50;;;;;;;6.30;87.08;101149.67;110961;1211;245434;-63
2023/10/10 00:17:15;;;;;;;36.70;18.60;;;;;;;6.28;87.13;101146.16;110864;1208;96352;-63
2023/10/10 00:19:45;;;;;;;33.10;16.80;;;;;;;6.26;87.09;101147.27;110832;1209;139339;-63
2023/10/10 00:22:11;;;;;;;36.40;17.10;;;;;;;6.21;87.20;101150.36;110873;1213;109764;-63
2023/10/10 00:24:37;;;;;;;31.30;17.20;;;;;;;6.19;87.34;101150.39;110749;1209;140247;-64
2023/10/10 00:27:13;;;;;;;34.60;17.30;;;;;;;6.19;87.44;101147.73;110860;1212;96330;-63
2023/10/10 00:29:42;;;;;;;34.10;18.30;;;;;;;6.19;87.42;101148.09;110827;1211;96763;-63
2023/10/10 00:32:22;;;;;;;34.30;18.00;;;;;;;6.18;87.54;101145.09;110900;1208;139087;-63
2023/10/10 00:34:48;;;;;;;38.90;17.60;;;;;;;6.16;87.53;101142.10;110877;1212;110257;-63
2023/10/10 00:37:21;;;;;;;37.70;18.30;;;;;;;6.14;87.66;101139.11;110827;1209;138637;-63
2023/10/10 00:39:52;;;;;;;46.70;20.10;;;;;;;6.13;87.69;101139.14;110904;1211;108462;-63
2023/10/10 00:42:42;;;;;;;39.80;19.10;;;;;;;6.09;87.73;101134.95;110827;1209;97190;-65
2023/10/10 00:45:09;;;;;;;37.90;18.70;;;;;;;6.06;87.75;101134.66;110735;1208;96670;-63
2023/10/10 00:47:43;;;;;;;35.30;19.00;;;;;;;6.05;87.83;101136.61;110706;1216;109770;-63
2023/10/10 00:50:17;;;;;;;38.50;18.70;;;;;;;6.05;87.81;101137.15;110811;1208;139611;-63
2023/10/10 00:52:48;;;;;;;34.90;19.60;;;;;;;6.02;87.76;101135.79;110917;1211;107990;-63
2023/10/10 00:55:14;;;;;;;35.30;17.70;;;;;;;5.97;87.93;101130.91;110832;1211;140059;-63
2023/10/10 00:57:40;;;;;;;35.30;17.80;;;;;;;5.93;87.90;101130.80;110790;1221;96378;-63
2023/10/10 01:00:14;;;;;;;32.50;18.10;;;;;;;5.91;88.05;101126.57;110950;1208;96755;-63
2023/10/10 01:02:39;;;;;;;39.40;18.60;;;;;;;5.87;88.01;101124.83;110582;1212;140579;-63
2023/10/10 01:05:12;;;;;;;41.90;19.20;;;;;;;5.84;88.24;101123.80;110786;1209;96332;-63
2023/10/10 01:07:38;;;;;;;31.60;17.80;;;;;;;5.83;88.13;101124.17;110749;1211;139306;-63
2023/10/10 01:10:11;;;;;;;37.40;19.30;;;;;;;5.82;88.07;101125.45;110891;1210;96352;-63
2023/10/10 01:12:42;;;;;;;38.70;19.20;;;;;;;5.81;88.36;101126.52;110666;1210;139769;-63
2023/10/10 01:15:24;;;;;;;37.80;19.10;;;;;;;5.81;88.37;101121.73;110746;1210;106434;-63
2023/10/10 01:17:51;;;;;;;37.10;18.40;;;;;;;5.81;88.48;101116.77;110742;1213;96238;-63
2023/10/10 01:20:18;;;;;;;36.80;19.80;;;;;;;5.79;88.43;101116.09;110749;1212;139496;-63
2023/10/10 01:22:48;;;;;;;41.50;20.10;;;;;;;5.77;88.55;101118.08;110819;1209;96353;-63
2023/10/10 01:28:02;;;;;;;43.70;20.90;;;;;;;5.77;88.63;101113.10;111046;1209;107496;-63
2023/10/10 01:30:49;;;;;;;43.40;20.70;;;;;;;5.75;88.66;101113.14;110860;1212;139727;-62
2023/10/10 01:33:14;;;;;;;38.80;19.90;;;;;;;5.72;88.81;101114.42;110968;1211;96331;-63
2023/10/10 01:35:43;;;;;;;41.70;21.40;;;;;;;5.72;88.76;101118.50;110961;1211;95141;-63
2023/10/10 01:38:55;;;;;;;37.30;18.90;;;;;;;5.70;88.85;101117.65;110826;1209;139939;-62
2023/10/10 01:41:23;;;;;;;39.10;20.50;;;;;;;5.68;88.67;101118.04;110825;1211;111931;-63
2023/10/10 01:43:53;;;;;;;40.40;20.70;;;;;;;5.66;88.90;101122.69;110764;1209;138463;-63
2023/10/10 01:46:27;;;;;;;34.20;19.90;;;;;;;5.66;88.90;101127.11;110801;1212;96352;-62
2023/10/10 01:48:55;;;;;;;40.10;21.30;;;;;;;5.64;88.92;101128.39;110851;1209;139624;-62
2023/10/10 01:51:24;;;;;;;34.70;20.00;;;;;;;5.63;89.11;101125.73;110847;1211;102135;-63
2023/10/10 01:53:52;;;;;;;46.50;22.40;;;;;;;5.61;89.09;101122.77;111163;1209;107994;-63
2023/10/10 01:56:17;;;;;;;50.50;24.60;;;;;;;5.60;89.27;101121.35;110816;1211;139669;-63
2023/10/10 01:58:42;;;;;;;52.50;22.40;;;;;;;5.61;89.31;101119.40;110910;1208;95216;-63
2023/10/10 02:01:13;;;;;;;52.60;23.60;;;;;;;5.59;89.24;101128.27;110892;1211;138849;-63
2023/10/10 02:03:39;;;;;;;44.10;22.80;;;;;;;5.54;89.14;101132.61;110805;1211;107862;-63
2023/10/10 02:06:08;;;;;;;42.00;22.40;;;;;;;5.52;89.27;101135.13;111020;1208;96333;-62
2023/10/10 02:08:35;;;;;;;38.20;20.40;;;;;;;5.48;89.33;101136.24;110802;1211;139142;-63
2023/10/10 02:11:02;;;;;;;34.90;18.70;;;;;;;5.45;89.37;101137.35;110813;1209;96294;-63
2023/10/10 02:13:33;;;;;;;32.20;18.30;;;;;;;5.41;89.32;101138.48;110754;1211;138364;-63
2023/10/10 02:15:59;;;;;;;34.60;18.30;;;;;;;5.39;89.44;101137.98;110837;1209;108173;-63
2023/10/10 02:18:37;;;;;;;29.40;17.60;;;;;;;5.36;89.48;101136.59;110831;1211;140126;-63
2023/10/10 02:21:07;;;;;;;30.90;17.80;;;;;;;5.36;89.62;101144.75;110870;1209;95816;-63
2023/10/10 02:23:34;;;;;;;32.00;17.60;;;;;;;5.35;89.70;101136.60;110885;1210;110249;-63
2023/10/10 02:26:03;;;;;;;29.90;16.30;;;;;;;5.34;89.66;101138.40;110804;1209;138966;-63
2023/10/10 02:28:48;;;;;;;32.50;17.60;;;;;;;5.34;89.89;101133.25;111019;1212;107987;-63
2023/10/10 02:31:18;;;;;;;31.90;18.00;;;;;;;5.35;90.01;101133.95;110744;1212;138921;-63
2023/10/10 02:33:56;;;;;;;33.10;17.20;;;;;;;5.35;89.76;101137.85;111019;1209;95073;-63
2023/10/10 02:36:30;;;;;;;31.60;17.20;;;;;;;5.29;89.60;101136.88;110929;1212;110406;-63
2023/10/10 02:41:49;;;;;;;31.50;17.60;;;;;;;5.21;89.97;101134.50;110931;1223;107236;-63
2023/10/10 02:44:38;;;;;;;32.70;17.60;;;;;;;5.24;90.20;101140.66;110866;1209;138674;-63
2023/10/10 02:47:04;;;;;;;46.40;19.90;;;;;;;5.25;90.16;101144.55;110857;1211;96310;-61
2023/10/10 02:49:30;;;;;;;33.60;17.80;;;;;;;5.25;90.21;101146.50;110759;1209;138191;-63
2023/10/10 02:51:56;;;;;;;29.30;16.80;;;;;;;5.26;90.35;101153.74;111018;1215;96225;-62
2023/10/10 02:56:57;;;;;;;30.80;17.60;;;;;;;5.33;90.51;101154.38;110852;1209;138507;-62
2023/10/10 02:59:37;;;;;;;29.80;17.70;;;;;;;5.33;90.48;101151.71;110981;1209;110812;-63
2023/10/10 03:02:18;;;;;;;25.50;15.90;;;;;;;5.31;90.41;101147.30;110707;1212;140546;-63
2023/10/10 03:07:29;;;;;;;31.10;18.30;;;;;;;5.36;90.82;101145.82;110771;1211;139009;-62
2023/10/10 03:10:45;;;;;;;26.30;16.40;;;;;;;5.40;90.84;101145.58;111047;1208;96075;-63
2023/10/10 03:12:49;;;;;;;26.90;16.10;;;;;;;5.48;91.08;101145.29;110812;1212;138439;-63
2023/10/10 03:15:27;;;;;;;26.30;16.20;;;;;;;5.51;91.02;101147.72;110968;1209;99953;-63
2023/10/10 03:25:54;;;;;;;24.60;15.40;;;;;;;5.68;91.46;101133.27;110806;1211;138312;-62
2023/10/10 03:28:22;;;;;;;26.20;14.80;;;;;;;5.70;91.32;101139.64;110944;1212;100037;-63
2023/10/10 03:31:06;;;;;;;27.00;15.70;;;;;;;5.73;91.45;101139.77;110802;1209;140453;-63
2023/10/10 05:25:15;;;;;;;38.60;16.90;;;;;;;6.68;93.20;101149.67;110707;1213;140246;-62
2023/10/10 05:27:41;;;;;;;34.40;18.40;;;;;;;6.71;93.20;101149.97;111042;1213;110255;-65
2023/10/10 05:30:25;;;;;;;27.40;16.30;;;;;;;6.74;93.28;101152.21;110882;1214;96415;-64
2023/10/10 05:33:00;;;;;;;26.60;16.40;;;;;;;6.80;93.35;101153.35;110956;1215;139748;-65
2023/10/10 05:35:28;;;;;;;33.90;19.30;;;;;;;6.82;93.16;101155.42;110879;1215;97525;-65
2023/10/10 05:37:54;;;;;;;25.60;16.40;;;;;;;6.84;93.22;101157.00;110829;1214;138278;-62
2023/10/10 05:40:20;;;;;;;29.80;17.20;;;;;;;6.88;93.39;101158.16;110775;1209;96256;-62
2023/10/10 05:42:45;;;;;;;30.90;17.60;;;;;;;6.93;93.35;101161.98;110677;1211;139770;-65
2023/10/10 05:45:13;;;;;;;32.20;17.90;;;;;;;6.94;93.26;101167.98;110681;1211;96980;-62
2023/10/10 05:47:39;;;;;;;29.80;17.30;;;;;;;6.96;93.27;101166.70;110733;1212;96344;-62
2023/10/10 05:50:10;;;;;;;35.10;18.80;;;;;;;6.96;93.30;101164.76;110629;1210;140394;-65
2023/10/10 05:52:38;;;;;;;45.60;21.00;;;;;;;6.94;93.22;101167.47;110862;1211;99976;-64
2023/10/10 05:55:05;;;;;;;34.30;18.10;;;;;;;6.95;93.29;101169.56;110605;1211;139592;-64
2023/10/10 05:57:33;;;;;;;37.10;18.60;;;;;;;6.98;93.41;101177.86;110968;1212;96308;-62
2023/10/10 05:59:59;;;;;;;37.40;18.60;;;;;;;7.03;93.47;101175.80;110983;1211;96738;-64
2023/10/10 06:02:27;;;;;;;44.80;20.40;;;;;;;7.06;93.52;101176.09;110694;1210;139447;-65
2023/10/10 06:04:53;;;;;;;42.50;18.90;;;;;;;7.07;93.35;101178.92;110897;1212;96318;-64
2023/10/10 06:07:20;;;;;;;40.40;19.10;;;;;;;7.08;93.31;101184.22;110916;1212;138504;-64
2023/10/10 06:09:48;;;;;;;44.90;21.10;;;;;;;7.09;93.35;101184.75;110862;1212;96375;-65
2023/10/10 06:12:15;;;;;;;41.20;20.40;;;;;;;7.13;93.53;101183.24;110947;1210;109995;-64
2023/10/10 06:14:42;;;;;;;39.50;20.50;;;;;;;7.19;93.64;101182.22;110845;1209;138431;-65
2023/10/10 06:17:08;;;;;;;42.50;20.10;;;;;;;7.24;93.58;101182.84;111001;1208;96322;-64
2023/10/10 06:19:34;;;;;;;37.20;20.70;;;;;;;7.28;93.67;101176.17;110971;1210;139792;-64
2023/10/10 06:22:02;;;;;;;41.40;21.50;;;;;;;7.35;93.72;101172.45;110945;1212;96330;-64
2023/10/10 06:24:28;;;;;;;37.40;19.50;;;;;;;7.42;93.75;101172.48;110890;1212;99025;-64
2023/10/10 06:27:00;;;;;;;39.00;19.40;;;;;;;7.44;93.67;101172.79;110479;1212;139411;-65
2023/10/10 06:29:29;;;;;;;33.40;20.80;;;;;;;7.49;93.66;101177.30;109790;1224;97263;-65
2023/10/10 06:31:56;;;;;;;37.60;20.00;;;;;;;7.56;93.78;101173.23;108010;1209;140027;-66
2023/10/10 06:34:23;;;;;;;35.90;20.00;;;;;;;7.62;93.80;101173.63;110895;1211;112122;-65
2023/10/10 06:36:50;;;;;;;37.60;20.30;;;;;;;7.68;93.77;101176.52;110892;1209;140392;-64
2023/10/10 06:41:50;;;;;;;31.60;19.60;;;;;;;7.80;93.84;101173.92;110893;1212;95135;-65
2023/10/10 06:47:08;;;;;;;38.20;20.00;;;;;;;7.83;93.74;101173.46;110825;1212;100793;-65
2023/10/10 06:49:43;;;;;;;38.40;18.10;;;;;;;7.88;93.83;101172.29;110712;1212;140740;-65
2023/10/10 06:52:09;;;;;;;29.10;17.50;;;;;;;7.95;93.85;101170.70;110808;1222;96346;-65
2023/10/10 06:54:44;;;;;;;43.80;18.90;;;;;;;8.02;93.90;101173.54;110825;1212;96288;-64
2023/10/10 06:57:16;;;;;;;30.40;17.70;;;;;;;8.11;93.96;101172.96;110843;1212;109803;-65
2023/10/10 06:59:42;;;;;;;32.70;18.50;;;;;;;8.22;94.08;101179.48;110890;1210;100062;-66
2023/10/10 07:02:21;;;;;;;31.20;17.10;;;;;;;8.31;93.96;101179.79;110598;1212;138550;-65
2023/10/10 07:04:54;;;;;;;29.80;17.40;;;;;;;8.38;94.01;101182.29;110593;1214;97002;-65
2023/10/10 07:07:26;;;;;;;29.80;16.40;;;;;;;8.46;93.95;101190.98;110437;1209;140322;-63
2023/10/10 07:09:57;;;;;;;29.70;16.90;;;;;;;8.47;93.68;101192.02;110530;1226;110061;-64
2023/10/10 07:12:24;;;;;;;29.50;17.10;;;;;;;8.48;93.70;101187.19;110576;1212;100203;-63
2023/10/10 07:14:53;;;;;;;36.20;19.00;;;;;;;8.56;93.84;101192.50;110469;1210;138449;-64
2023/10/10 07:17:26;;;;;;;35.20;18.20;;;;;;;8.63;93.86;101190.38;110449;1221;96321;-64
2023/10/10 07:22:27;;;;;;;30.00;17.30;;;;;;;8.65;93.51;101185.69;110800;1212;108832;-64
2023/10/10 07:24:55;;;;;;;42.80;17.30;;;;;;;8.67;93.56;101186.32;110701;1209;139601;-63
2023/10/10 07:27:30;;;;;;;33.30;16.80;;;;;;;8.70;93.52;101179.47;110710;1212;96349;-63
2023/10/10 07:29:58;;;;;;;44.50;19.60;;;;;;;8.74;93.59;101181.50;111167;1212;96307;-63
2023/10/10 07:32:29;;;;;;;32.40;17.20;;;;;;;8.84;93.72;101170.73;110788;1212;140187;-63
2023/10/10 07:34:56;;;;;;;37.50;17.00;;;;;;;8.89;93.40;101169.70;110926;1212;110664;-63
2023/10/10 07:37:29;;;;;;;29.40;16.80;;;;;;;8.93;93.47;101169.22;110782;1208;139866;-64
2023/10/10 07:39:55;;;;;;;35.30;17.50;;;;;;;8.98;93.46;101167.48;110901;1209;107848;-63
2023/10/10 07:42:29;;;;;;;32.30;17.70;;;;;;;9.05;93.44;101168.89;110779;1212;96333;-63
2023/10/10 07:44:55;;;;;;;29.40;16.40;;;;;;;9.11;93.40;101162.11;110792;1208;139295;-63
2023/10/10 07:47:29;;;;;;;32.20;16.90;;;;;;;9.17;93.38;101158.54;110727;1210;96250;-64
2023/10/10 07:49:59;;;;;;;26.80;16.50;;;;;;;9.23;93.28;101158.19;110750;1210;138924;-63
2023/10/10 07:52:25;;;;;;;31.70;16.40;;;;;;;9.24;93.03;101159.95;110775;1212;107108;-63
2023/10/10 07:54:53;;;;;;;31.70;15.20;;;;;;;9.29;93.20;101158.73;110671;1209;139200;-63
2023/10/10 07:57:22;;;;;;;26.50;15.30;;;;;;;9.36;93.11;101158.68;110967;1212;97589;-64
2023/10/10 07:59:49;;;;;;;28.80;16.00;;;;;;;9.40;93.00;101154.80;110885;1212;109675;-64
2023/10/10 08:02:24;;;;;;;25.90;15.10;;;;;;;9.48;93.02;101154.23;110969;1212;139911;-64
2023/10/10 08:04:58;;;;;;;25.00;14.50;;;;;;;9.53;92.83;101151.22;110753;1212;107933;-63
2023/10/10 08:07:23;;;;;;;31.30;16.10;;;;;;;9.60;92.89;101152.95;110632;1212;139883;-63
2023/10/10 08:09:49;;;;;;;26.70;15.40;;;;;;;9.71;92.94;101158.66;110664;1209;96307;-63
2023/10/10 08:12:15;;;;;;;29.80;16.70;;;;;;;9.77;92.68;101154.73;111166;1209;96333;-63
2023/10/10 08:14:42;;;;;;;24.20;15.10;;;;;;;9.85;92.66;101161.42;110735;1212;138605;-64
2023/10/10 08:17:25;;;;;;;24.10;14.40;;;;;;;9.94;92.73;101156.69;110804;1209;96224;-64
2023/10/10 08:19:51;;;;;;;21.50;14.20;;;;;;;9.98;92.45;101157.63;110735;1212;139064;-62
2023/10/10 08:22:25;;;;;;;23.20;13.40;;;;;;;9.99;92.38;101157.75;111145;1212;96195;-63
2023/10/10 08:24:54;;;;;;;20.50;13.40;;;;;;;10.05;92.39;101157.21;110580;1210;139322;-63
2023/10/10 08:27:22;;;;;;;23.00;13.70;;;;;;;10.12;92.24;101160.21;110836;1208;107825;-63
2023/10/10 08:29:49;;;;;;;20.00;13.20;;;;;;;10.13;91.90;101162.31;110723;1209;96346;-63
2023/10/10 08:32:14;;;;;;;21.30;14.40;;;;;;;10.14;91.77;101163.50;110504;1212;139045;-63
2023/10/10 08:34:42;;;;;;;24.70;14.80;;;;;;;10.18;91.68;101163.05;110891;1212;96310;-63
2023/10/10 08:37:09;;;;;;;26.60;15.30;;;;;;;10.18;91.41;101168.23;110668;1209;139260;-63
2023/10/10 08:39:39;;;;;;;21.20;14.30;;;;;;;10.21;91.40;101171.86;110819;1212;96305;-64
2023/10/10 08:42:06;;;;;;;25.80;15.10;;;;;;;10.32;91.37;101167.77;110994;1211;96305;-64
2023/10/10 08:44:38;;;;;;;23.50;13.80;;;;;;;10.44;91.46;101163.20;110883;1209;139937;-64
2023/10/10 08:47:06;;;;;;;25.70;15.00;;;;;;;10.52;91.34;101159.19;110786;1212;100960;-64
2023/10/10 08:49:32;;;;;;;30.70;13.60;;;;;;;10.53;91.06;101160.40;110757;1212;139609;-64
2023/10/10 08:52:03;;;;;;;24.00;15.70;;;;;;;10.56;90.85;101161.36;110743;1208;96313;-64
2023/10/10 08:54:29;;;;;;;24.60;15.40;;;;;;;10.59;90.75;101160.55;110739;1212;96600;-64
2023/10/10 08:57:03;;;;;;;27.50;16.10;;;;;;;10.64;90.73;101154.09;110856;1212;138742;-64
2023/10/10 08:59:34;;;;;;;25.60;15.30;;;;;;;10.76;90.74;101152.61;110832;1208;99002;-66
2023/10/10 09:02:06;;;;;;;31.70;16.20;;;;;;;10.87;90.69;101159.35;110674;1212;139787;-65
2023/10/10 09:04:31;;;;;;;25.00;15.90;;;;;;;10.94;90.51;101156.60;110740;1209;96252;-67
2023/10/10 09:09:39;;;;;;;26.40;15.30;;;;;;;11.10;90.34;101151.55;110802;1209;95289;-64
2023/10/10 09:12:14;;;;;;;27.60;15.40;;;;;;;11.14;90.11;101153.89;110659;1214;108032;-67
2023/10/10 09:14:49;;;;;;;28.20;15.50;;;;;;;11.17;90.09;101153.41;110572;1224;139175;-65
2023/10/10 09:17:29;;;;;;;24.40;14.90;;;;;;;11.15;89.59;101154.92;110774;1210;96528;-64
2023/10/10 09:19:57;;;;;;;21.70;14.10;;;;;;;11.12;89.61;101150.75;110676;1209;138629;-63
2023/10/10 09:22:33;;;;;;;25.40;13.60;;;;;;;11.05;89.20;101154.59;110744;1209;99984;-64
2023/10/10 09:25:17;;;;;;;19.90;12.50;;;;;;;11.02;89.11;101159.16;110473;1213;138862;-64
2023/10/10 09:28:06;;;;;;;18.00;12.40;;;;;;;10.97;89.00;101157.19;110552;1228;98617;-65
2023/10/10 09:30:40;;;;;;;20.70;13.60;;;;;;;10.97;88.77;101163.64;110634;1225;96264;-64
2023/10/10 09:36:15;;;;;;;21.70;13.90;;;;;;;11.08;88.71;101154.30;110677;1215;100773;-67
2023/10/10 09:38:46;;;;;;;25.30;14.40;;;;;;;11.20;88.70;101145.78;110516;1212;139955;-64
2023/10/10 09:41:28;;;;;;;28.20;14.30;;;;;;;11.26;88.53;101151.98;110612;1214;96224;-65
2023/10/10 09:55:39;;;;;;;23.60;14.10;;;;;;;11.56;87.96;101146.70;110556;1209;140774;-65
2023/10/10 09:58:00;;;;;;;28.90;15.70;;;;;;;11.56;87.79;101155.66;110701;1210;96315;-65
2023/10/10 10:00:52;;;;;;;26.50;16.30;;;;;;;11.59;87.68;101153.56;110888;1213;109630;-65
2023/10/10 10:06:05;;;;;;;26.60;14.40;;;;;;;11.49;87.18;101160.79;110725;1215;107594;-65
2023/10/10 10:08:42;;;;;;;24.80;14.90;;;;;;;11.46;86.95;101159.27;110866;1213;139965;-65
2023/10/10 10:11:26;;;;;;;28.70;16.10;;;;;;;11.50;86.96;101153.59;110738;1209;97895;-65
2023/10/10 10:14:47;;;;;;;23.20;14.70;;;;;;;11.60;87.14;101159.97;110727;1212;138670;-65
2023/10/10 10:17:23;;;;;;;24.00;15.20;;;;;;;11.69;86.88;101155.13;110542;1209;100168;-65
2023/10/10 10:19:49;;;;;;;20.20;14.00;;;;;;;11.75;86.76;101139.70;110658;1212;139413;-65
2023/10/10 10:22:20;;;;;;;23.50;14.80;;;;;;;11.82;86.76;101146.25;111055;1212;97686;-66
2023/10/10 10:24:48;;;;;;;27.60;15.80;;;;;;;11.93;86.77;101148.11;110729;1212;99495;-66
2023/10/10 10:27:31;;;;;;;26.00;14.50;;;;;;;11.97;86.48;101141.13;110469;1209;139869;-65
2023/10/10 10:30:39;;;;;;;24.00;14.70;;;;;;;12.01;86.34;101141.70;110402;1210;100337;-66
2023/10/10 10:33:00;;;;;;;25.00;14.90;;;;;;;12.18;86.38;101136.70;110512;1213;139820;-66
2023/10/10 10:35:46;;;;;;;23.40;14.30;;;;;;;12.34;86.49;101136.55;110635;1210;97908;-65
2023/10/10 10:38:12;;;;;;;24.20;15.10;;;;;;;12.54;86.32;101142.50;110536;1212;140963;-66
2023/10/10 10:43:13;;;;;;;20.80;14.50;;;;;;;12.74;85.88;101132.48;110470;1210;139289;-62
2023/10/10 10:45:44;;;;;;;20.40;14.40;;;;;;;12.77;85.65;101125.71;110735;1212;109282;-62
2023/10/10 10:48:29;;;;;;;;;;;;;;;12.84;85.49;101127.71;110803;1223;97588;-61
2023/10/10 10:50:59;;;;;;;25.30;15.10;;;;;;;12.95;85.70;101126.27;110778;1209;125783;-62
2023/10/10 10:53:35;;;;;;;24.40;15.70;;;;;;;13.00;85.24;101125.01;110814;1212;111603;-62
2023/10/10 11:01:28;;;;;;;25.90;14.30;;;;;;;13.21;84.75;101134.06;110648;1224;139619;-62
2023/10/10 11:03:55;;;;;;;22.00;14.20;;;;;;;13.19;84.32;101135.63;110822;1212;98144;-61
2023/10/10 11:06:28;;;;;;;24.70;15.20;;;;;;;13.22;84.29;101133.48;111031;1209;100560;-62
2023/10/10 11:09:08;;;;;;;25.70;16.50;;;;;;;13.21;84.15;101130.86;110782;1212;138877;-61
2023/10/10 11:14:04;;;;;;;25.20;15.30;;;;;;;13.24;83.71;101120.84;110712;1212;139388;-62
2023/10/10 11:16:39;;;;;;;22.30;14.90;;;;;;;13.27;83.71;101112.42;111026;1209;97681;-62
2023/10/10 11:19:12;;;;;;;22.80;15.50;;;;;;;13.43;83.82;101098.20;110687;1211;139100;-62
2023/10/10 11:21:48;;;;;;;22.60;14.90;;;;;;;13.58;83.87;101102.16;110929;1211;99906;-62
2023/10/10 11:24:29;;;;;;;20.20;14.40;;;;;;;13.69;83.58;101103.95;110850;1212;107836;-62
2023/10/10 11:29:41;;;;;;;21.40;13.80;;;;;;;13.64;83.22;101101.31;110813;1209;98329;-63
2023/10/10 11:32:08;;;;;;;29.30;15.30;;;;;;;13.69;83.09;101101.61;110678;1225;138867;-63
2023/10/10 11:34:43;;;;;;;23.40;14.70;;;;;;;13.72;82.91;101103.65;110964;1212;98021;-62
2023/10/10 11:37:23;;;;;;;23.70;14.70;;;;;;;13.73;82.68;101102.34;110722;1212;138953;-63
2023/10/10 11:39:58;;;;;;;22.00;14.00;;;;;;;13.74;82.62;101102.61;110852;1212;99067;-62
2023/10/10 11:42:33;;;;;;;23.60;14.40;;;;;;;13.71;82.38;101104.20;110992;1212;97600;-63
2023/10/10 11:45:17;;;;;;;25.60;15.10;;;;;;;13.68;82.22;101099.35;110739;1212;140190;-63
2023/10/10 11:47:44;;;;;;;22.00;14.10;;;;;;;13.69;81.99;101096.98;110894;1212;100220;-62
2023/10/10 11:50:11;;;;;;;24.00;14.20;;;;;;;13.74;82.22;101095.10;110814;1209;140089;-63
2023/10/10 11:52:57;;;;;;;27.90;13.30;;;;;;;13.90;82.32;101096.45;110820;1209;97706;-63
2023/10/10 11:55:23;;;;;;;23.70;13.90;;;;;;;14.01;82.02;101094.80;110670;1209;140006;-63
2023/10/10 11:57:49;;;;;;;26.80;15.00;;;;;;;14.05;81.87;101085.48;110728;1209;98102;-62
2023/10/10 12:00:22;;;;;;;25.90;15.50;;;;;;;14.02;81.64;101082.55;110796;1212;97735;-61
2023/10/10 12:02:49;;;;;;;24.00;14.40;;;;;;;13.97;81.55;101075.59;110587;1210;139811;-62
2023/10/10 12:05:35;;;;;;;23.30;13.80;;;;;;;13.95;81.50;101077.13;110778;1212;97975;-62
2023/10/10 12:08:06;;;;;;;22.00;13.80;;;;;;;13.89;81.20;101080.50;110684;1212;140223;-62
2023/10/10 12:10:48;;;;;;;22.60;13.80;;;;;;;13.89;81.25;101081.02;111199;1209;111231;-62
2023/10/10 12:13:33;;;;;;;22.40;14.30;;;;;;;13.97;81.26;101078.85;110676;1209;142211;-62
2023/10/10 12:16:12;;;;;;;21.60;14.00;;;;;;;13.97;81.10;101077.38;110728;1209;107786;-62
2023/10/10 12:18:49;;;;;;;23.70;14.00;;;;;;;13.95;80.97;101078.73;110783;1210;97758;-61
2023/10/10 12:21:19;;;;;;;20.00;13.00;;;;;;;13.99;81.07;101083.23;110554;1212;97981;-62
2023/10/10 12:23:47;;;;;;;20.00;13.80;;;;;;;13.95;80.77;101086.12;110770;1208;111162;-62
2023/10/10 12:26:13;;;;;;;20.70;12.90;;;;;;;13.93;80.79;101079.02;110590;1212;142358;-62
2023/10/10 12:28:38;;;;;;;21.80;14.00;;;;;;;13.85;80.47;101077.84;110734;1209;97607;-62
2023/10/10 12:31:05;;;;;;;23.10;14.40;;;;;;;13.80;80.55;101074.48;110706;1221;139813;-62
2023/10/10 12:33:31;;;;;;;24.70;14.90;;;;;;;13.72;80.48;101068.24;111275;1212;111037;-61
2023/10/10 12:35:57;;;;;;;26.20;16.20;;;;;;;13.68;80.40;101065.95;110783;1209;97588;-61
2023/10/10 12:38:23;;;;;;;23.10;15.50;;;;;;;13.67;80.42;101066.18;110751;1209;139733;-61
2023/10/10 12:40:53;;;;;;;21.70;14.00;;;;;;;13.67;80.40;101062.41;111091;1209;97565;-61
2023/10/10 12:43:23;;;;;;;22.70;15.00;;;;;;;13.62;80.31;101065.52;110780;1209;139072;-61
2023/10/10 12:45:51;;;;;;;26.30;15.70;;;;;;;13.61;80.36;101063.38;110895;1212;99861;-61
2023/10/10 12:48:23;;;;;;;27.80;17.60;;;;;;;13.64;80.46;101066.31;110935;1209;97579;-63
2023/10/10 12:50:52;;;;;;;30.00;18.10;;;;;;;13.65;80.35;101065.52;110777;1209;139648;-61
2023/10/10 12:53:21;;;;;;;33.20;17.60;;;;;;;13.62;80.28;101061.89;110883;1212;97598;-61
2023/10/10 12:55:55;;;;;;;25.70;17.50;;;;;;;13.65;80.35;101059.08;110719;1212;139199;-60
2023/10/10 12:58:22;;;;;;;29.90;18.90;;;;;;;13.61;80.22;101063.58;110780;1220;99328;-61
2023/10/10 13:00:52;;;;;;;25.30;16.40;;;;;;;13.56;80.23;101062.94;111012;1211;109221;-63
2023/10/10 13:03:23;;;;;;;31.40;17.80;;;;;;;13.54;80.17;101068.43;110859;1211;97668;-61
2023/10/10 13:05:58;;;;;;;23.60;16.30;;;;;;;13.48;80.07;101071.40;110870;1212;99189;-61
2023/10/10 13:08:24;;;;;;;24.40;16.00;;;;;;;13.41;80.12;101069.44;110749;1212;139875;-62
2023/10/10 13:10:55;;;;;;;27.20;17.00;;;;;;;13.35;80.01;101067.20;110794;1210;100565;-61
2023/10/10 13:13:31;;;;;;;28.60;18.20;;;;;;;13.28;80.05;101067.68;110686;1212;140774;-62
2023/10/10 13:16:22;;;;;;;26.20;18.20;;;;;;;13.23;80.16;101069.35;110657;1225;97579;-62
2023/10/10 13:18:51;;;;;;;30.80;19.90;;;;;;;13.21;80.24;101068.20;110806;1212;97996;-61
2023/10/10 13:21:19;;;;;;;33.20;19.30;;;;;;;13.18;80.27;101071.39;111007;1208;111368;-62
2023/10/10 13:23:45;;;;;;;29.10;19.10;;;;;;;13.13;80.05;101066.77;110834;1208;99377;-62
2023/10/10 13:26:11;;;;;;;30.70;19.20;;;;;;;13.03;80.11;101068.33;110662;1212;139535;-62
2023/10/10 13:28:38;;;;;;;32.30;19.30;;;;;;;12.98;80.27;101073.95;110890;1209;97625;-62
2023/10/10 13:31:03;;;;;;;30.40;19.60;;;;;;;12.97;80.28;101079.02;110581;1209;140466;-61
2023/10/10 13:33:28;;;;;;;31.60;19.90;;;;;;;12.88;80.26;101080.88;110851;1209;97693;-62
2023/10/10 13:35:54;;;;;;;35.10;21.80;;;;;;;12.80;80.35;101080.36;110926;1211;97590;-62
2023/10/10 13:38:19;;;;;;;36.00;21.70;;;;;;;12.76;80.59;101078.23;110729;1212;139438;-63
2023/10/10 13:40:45;;;;;;;33.20;21.20;;;;;;;12.69;80.44;101074.59;110919;1209;97556;-61
2023/10/10 13:43:16;;;;;;;38.40;22.80;;;;;;;12.58;80.41;101076.90;110638;1212;140658;-62
2023/10/10 13:45:42;;;;;;;32.70;20.80;;;;;;;12.45;80.47;101077.48;111409;1211;98265;-61
2023/10/10 13:48:14;;;;;;;40.70;24.70;;;;;;;12.36;80.65;101076.42;110899;1212;97645;-61
2023/10/10 13:50:42;;;;;;;42.00;24.50;;;;;;;12.33;81.06;101072.95;110811;1209;140141;-61
2023/10/10 13:53:11;;;;;;;41.30;23.60;;;;;;;12.35;81.26;101067.88;110904;1209;99948;-61
2023/10/10 13:55:38;;;;;;;41.50;24.20;;;;;;;12.35;81.32;101064.48;110812;1212;139366;-61
2023/10/10 13:58:07;;;;;;;40.80;23.60;;;;;;;12.34;81.52;101067.19;110881;1209;98036;-61
2023/10/10 14:00:35;;;;;;;41.50;24.40;;;;;;;12.35;81.58;101074.31;110966;1209;97563;-61
2023/10/10 14:03:03;;;;;;;45.10;23.40;;;;;;;12.35;81.78;101070.00;110911;1210;141285;-64
2023/10/10 14:05:41;;;;;;;39.70;24.40;;;;;;;12.32;81.68;101070.48;110988;1212;100030;-61
2023/10/10 14:08:08;;;;;;;39.30;22.30;;;;;;;12.28;82.00;101064.95;110776;1209;138945;-61
2023/10/10 14:10:38;;;;;;;38.90;23.20;;;;;;;12.23;82.06;101059.98;110888;1211;97667;-61
2023/10/10 14:13:18;;;;;;;44.10;23.30;;;;;;;12.18;82.27;101066.09;110658;1212;140912;-61